Map

Track Data

SID SEASON NUMBER BASIN SUBBASIN NAME ISO_TIME NATURE LAT LON WMO_WIND WMO_PRES WMO_AGENCY TRACK_TYPE DIST2LAND LANDFALL IFLAG USA_AGENCY USA_ATCF_ID USA_LAT USA_LON USA_RECORD USA_STATUS USA_WIND USA_PRES USA_SSHS USA_R34_NE USA_R34_SE USA_R34_SW USA_R34_NW USA_R50_NE USA_R50_SE USA_R50_SW USA_R50_NW USA_R64_NE USA_R64_SE USA_R64_SW USA_R64_NW USA_POCI USA_ROCI USA_RMW USA_EYE TOKYO_LAT TOKYO_LON TOKYO_GRADE TOKYO_WIND TOKYO_PRES TOKYO_R50_DIR TOKYO_R50_LONG TOKYO_R50_SHORT TOKYO_R30_DIR TOKYO_R30_LONG TOKYO_R30_SHORT TOKYO_LAND CMA_LAT CMA_LON CMA_CAT CMA_WIND CMA_PRES HKO_LAT HKO_LON HKO_CAT HKO_WIND HKO_PRES NEWDELHI_LAT NEWDELHI_LON NEWDELHI_GRADE NEWDELHI_WIND NEWDELHI_PRES NEWDELHI_CI NEWDELHI_DP NEWDELHI_POCI REUNION_LAT REUNION_LON REUNION_TYPE REUNION_WIND REUNION_PRES REUNION_TNUM REUNION_CI REUNION_RMW REUNION_R34_NE REUNION_R34_SE REUNION_R34_SW REUNION_R34_NW REUNION_R50_NE REUNION_R50_SE REUNION_R50_SW REUNION_R50_NW REUNION_R64_NE REUNION_R64_SE REUNION_R64_SW REUNION_R64_NW BOM_LAT BOM_LON BOM_TYPE BOM_WIND BOM_PRES BOM_TNUM BOM_CI BOM_RMW BOM_R34_NE BOM_R34_SE BOM_R34_SW BOM_R34_NW BOM_R50_NE BOM_R50_SE BOM_R50_SW BOM_R50_NW BOM_R64_NE BOM_R64_SE BOM_R64_SW BOM_R64_NW BOM_ROCI BOM_POCI BOM_EYE BOM_POS_METHOD BOM_PRES_METHOD NADI_LAT NADI_LON NADI_CAT NADI_WIND NADI_PRES WELLINGTON_LAT WELLINGTON_LON WELLINGTON_WIND WELLINGTON_PRES DS824_LAT DS824_LON DS824_STAGE DS824_WIND DS824_PRES TD9636_LAT TD9636_LON TD9636_STAGE TD9636_WIND TD9636_PRES TD9635_LAT TD9635_LON TD9635_WIND TD9635_PRES TD9635_ROCI NEUMANN_LAT NEUMANN_LON NEUMANN_CLASS NEUMANN_WIND NEUMANN_PRES MLC_LAT MLC_LON MLC_CLASS MLC_WIND MLC_PRES USA_GUST BOM_GUST BOM_GUST_PER REUNION_GUST REUNION_GUST_PER USA_SEAHGT USA_SEARAD_NE USA_SEARAD_SE USA_SEARAD_SW USA_SEARAD_NW STORM_SPEED STORM_DIR
1947305N12097 1947 89 NI BB NOT_NAMED 1947-10-31 18:00:00 TS 11.6000 96.6000 main 209 209 O________O____ jtwc_io IO161947 11.6000 96.6000 -1 11.6000 96.6000 TC 1 289
1947305N12097 1947 89 NI BB NOT_NAMED 1947-10-31 21:00:00 TS 11.6225 96.5300 main 220 218 P________P____ IO161947 11.6225 96.5300 -1 11.6225 96.5300 TC 2 297
1947305N12097 1947 89 NI BB NOT_NAMED 1947-11-01 00:00:00 TS 11.7000 96.4000 main 229 229 O________O____ jtwc_io IO161947 11.7000 96.4000 -1 11.7000 96.4000 TC 25 4 306
1947305N12097 1947 89 NI BB NOT_NAMED 1947-11-01 03:00:00 TS 11.8734 96.1756 main 250 250 P________PO___ IO161947 11.8700 96.1725 -1 11.8700 96.1725 TC 25 11.9000 96.2000 1 6 310
1947305N12097 1947 89 NI BB NOT_NAMED 1947-11-01 06:00:00 TS 12.1069 95.9038 main 283 283 O________OP___ jtwc_io IO161947 12.1000 95.9000 -1 12.1000 95.9000 TC 25 12.1346 95.9190 1 7 313
1947305N12097 1947 89 NI BB NOT_NAMED 1947-11-01 09:00:00 TS 12.3459 95.6527 main 298 298 P________PP___ IO161947 12.3350 95.6574 -1 12.3350 95.6574 TC 25 12.3752 95.6402 1 7 315
1947305N12097 1947 89 NI BB NOT_NAMED 1947-11-01 12:00:00 TS 12.6094 95.3888 main 313 313 O________OP___ jtwc_io IO161947 12.6000 95.4000 -1 12.6000 95.4000 TC 25 12.6283 95.3663 1 8 315
1947305N12097 1947 89 NI BB NOT_NAMED 1947-11-01 15:00:00 TS 12.8950 95.0950 main 313 280 P________PO___ IO161947 12.8925 95.0925 -1 12.8925 95.0925 TC 25 12.9000 95.1000 1 8 316
1947305N12097 1947 89 NI BB NOT_NAMED 1947-11-01 18:00:00 TS 13.1974 94.8148 main 280 250 O________OP___ jtwc_io IO161947 13.2000 94.8000 -1 13.2000 94.8000 TC 25 13.1921 94.8445 1 8 321
1947305N12097 1947 89 NI BB NOT_NAMED 1947-11-01 21:00:00 TS 13.5108 94.5867 main 250 222 P________PP___ IO161947 13.5225 94.5775 -1 13.5225 94.5775 TC 25 13.4875 94.6052 1 7 325
1947305N12097 1947 89 NI BB NOT_NAMED 1947-11-02 00:00:00 TS 13.7880 94.3961 main 222 201 O________OP___ jtwc_io IO161947 13.8000 94.4000 -1 13.8000 94.4000 TC 25 13.7640 94.3883 1 6 324
1947305N12097 1947 89 NI BB NOT_NAMED 1947-11-02 03:00:00 TS 13.9816 94.2283 main 202 191 P________PO___ IO161947 13.9725 94.2424 -1 13.9725 94.2424 TC 25 14.0000 94.2000 1 5 318
1947305N12097 1947 89 NI BB NOT_NAMED 1947-11-02 06:00:00 TS 14.1227 94.0820 main 193 173 O________OP___ jtwc_io IO161947 14.1000 94.1000 -1 14.1000 94.1000 TC 25 14.1680 94.0460 1 4 315
1947305N12097 1947 89 NI BB NOT_NAMED 1947-11-02 09:00:00 TS 14.2699 93.9349 main 176 165 P________PP___ IO161947 14.2575 93.9425 -1 14.2575 93.9425 TC 25 14.2948 93.9196 1 4 316
1947305N12097 1947 89 NI BB NOT_NAMED 1947-11-02 12:00:00 TS 14.3998 93.8028 main 169 163 O________OP___ jtwc_io IO161947 14.4000 93.8000 -1 14.4000 93.8000 TC 25 14.3993 93.8085 1 3 315
1947305N12097 1947 89 NI BB NOT_NAMED 1947-11-02 15:00:00 TS 14.5000 93.7000 main 163 153 P________PO___ IO161947 14.5000 93.7000 -1 14.5000 93.7000 TC 25 14.5000 93.7000 1 3 316
1947305N12097 1947 89 NI BB NOT_NAMED 1947-11-02 18:00:00 TS 14.5960 93.6077 main 159 150 O________OP___ jtwc_io IO161947 14.6000 93.6000 -1 14.6000 93.6000 TC 25 14.5881 93.6231 1 3 317
1947305N12097 1947 89 NI BB NOT_NAMED 1947-11-02 21:00:00 TS 14.7223 93.4846 main 156 147 P________PP___ IO161947 14.7425 93.4575 -1 14.7425 93.4575 TC 25 14.6820 93.5389 1 4 316
1947305N12097 1947 89 NI BB NOT_NAMED 1947-11-03 00:00:00 TS 14.8699 93.3368 main 155 147 O________OP___ jtwc_io IO161947 14.9000 93.3000 -1 14.9000 93.3000 TC 25 14.8098 93.4103 1 4 316
1947305N12097 1947 89 NI BB NOT_NAMED 1947-11-03 03:00:00 TS 15.0032 93.2014 main 154 147 P________PO___ IO161947 15.0048 93.2021 -1 15.0048 93.2021 TC 25 15.0000 93.2000 1 5 315
1947305N12097 1947 89 NI BB NOT_NAMED 1947-11-03 06:00:00 TS 15.2366 92.9594 main 156 156 O________OP___ jtwc_io IO161947 15.2000 93.0000 -1 15.2000 93.0000 TC 25 15.3098 92.8782 1 9 314
1947305N12097 1947 89 NI BB NOT_NAMED 1947-11-03 09:00:00 TS 15.6443 92.5256 main 187 184 P________PP___ IO161947 15.6277 92.5529 -1 15.6277 92.5529 TC 25 15.6776 92.4710 1 13 313
1947305N12097 1947 89 NI BB NOT_NAMED 1947-11-03 12:00:00 TS 16.0855 92.0010 main 235 235 O________OP___ jtwc_io IO161947 16.1000 92.0000 -1 16.1000 92.0000 TC 25 16.0566 92.0031 1 13 309
1947305N12097 1947 89 NI BB NOT_NAMED 1947-11-03 15:00:00 TS 16.4248 91.5098 main 291 291 P________PO___ IO161947 16.4373 91.5148 -1 16.4373 91.5148 TC 25 16.4000 91.5000 1 11 302
1947305N12097 1947 89 NI BB NOT_NAMED 1947-11-03 18:00:00 TS 16.6907 90.9878 main 350 350 O________OP___ jtwc_io IO161947 16.7000 91.0000 -1 16.7000 91.0000 TC 25 16.6721 90.9633 1 12 295
1947305N12097 1947 89 NI BB NOT_NAMED 1947-11-03 21:00:00 TS 16.9246 90.3868 main 417 417 P________PP___ IO161947 16.9377 90.3776 -1 16.9377 90.3776 TC 25 16.8983 90.4053 1 12 290
1947305N12097 1947 89 NI BB NOT_NAMED 1947-11-04 00:00:00 TS 17.0918 89.8232 main 463 445 O________OP___ jtwc_io IO161947 17.1000 89.8000 -1 17.1000 89.8000 TC 25 17.0753 89.8696 1 10 285
1947305N12097 1947 89 NI BB NOT_NAMED 1947-11-04 03:00:00 TS 17.1815 89.3982 main 445 423 P________PO___ IO161947 17.1723 89.3973 -1 17.1723 89.3973 TC 25 17.2000 89.4000 1 7 281
1947305N12097 1947 89 NI BB NOT_NAMED 1947-11-04 06:00:00 TS 17.2248 89.0855 main 423 393 O________OP___ jtwc_io IO161947 17.2000 89.1000 -1 17.2000 89.1000 TC 25 17.2745 89.0565 1 6 279
1947305N12097 1947 89 NI BB NOT_NAMED 1947-11-04 09:00:00 TS 17.2721 88.8222 main 393 380 P________PP___ IO161947 17.2574 88.8425 -1 17.2574 88.8425 TC 25 17.3015 88.7817 1 5 279
1947305N12097 1947 89 NI BB NOT_NAMED 1947-11-04 12:00:00 TS 17.3009 88.5804 main 380 362 O________OP___ jtwc_io IO161947 17.3000 88.6000 -1 17.3000 88.6000 TC 25 17.3028 88.5411 1 5 273
1947305N12097 1947 89 NI BB NOT_NAMED 1947-11-04 15:00:00 TS 17.3000 88.3000 main 362 345 P________PO___ IO161947 17.3000 88.2999 -1 17.3000 88.2999 TC 25 17.3000 88.3000 1 5 271
1947305N12097 1947 89 NI BB NOT_NAMED 1947-11-04 18:00:00 TS 17.3082 88.0132 main 345 336 O________OP___ jtwc_io IO161947 17.3000 88.0000 -1 17.3000 88.0000 TC 25 17.3245 88.0396 1 5 276
1947305N12097 1947 89 NI BB NOT_NAMED 1947-11-04 21:00:00 TS 17.3496 87.7658 main 336 313 P________PP___ IO161947 17.3498 87.7650 -1 17.3498 87.7650 TC 25 17.3492 87.7674 1 5 279
1947305N12097 1947 89 NI BB NOT_NAMED 1947-11-05 00:00:00 TS 17.3915 87.4872 main 313 302 O________OP___ jtwc_io IO161947 17.4000 87.5000 -1 17.4000 87.5000 TC 25 17.3744 87.4615 1 6 275
1947305N12097 1947 89 NI BB NOT_NAMED 1947-11-05 03:00:00 TS 17.3999 87.1299 main 298 271 P________PO___ IO161947 17.3999 87.1449 -1 17.3999 87.1449 TC 25 17.4000 87.1000 1 8 271
1947305N12097 1947 89 NI BB NOT_NAMED 1947-11-05 06:00:00 TS 17.4084 86.6872 main 271 230 O________OP___ jtwc_io IO161947 17.4000 86.7000 -1 17.4000 86.7000 TC 25 17.4251 86.6615 1 9 273
1947305N12097 1947 89 NI BB NOT_NAMED 1947-11-05 09:00:00 TS 17.4501 86.1659 main 223 176 P________PP___ IO161947 17.4501 86.1651 -1 17.4501 86.1651 TC 25 17.4502 86.1674 1 10 275
1947305N12097 1947 89 NI BB NOT_NAMED 1947-11-05 12:00:00 TS 17.4917 85.6132 main 176 138 O________OP___ jtwc_io IO161947 17.5000 85.6000 -1 17.5000 85.6000 TC 25 17.4750 85.6396 1 10 273
1947305N12097 1947 89 NI BB NOT_NAMED 1947-11-05 15:00:00 TS 17.4998 85.0999 main 138 103 P________PO___ IO161947 17.4998 85.0999 -1 17.4998 85.0999 TC 25 17.5000 85.1000 1 10 271
1947305N12097 1947 89 NI BB NOT_NAMED 1947-11-05 18:00:00 TS 17.5101 84.5865 main 103 77 O________OP___ jtwc_io IO161947 17.5000 84.6000 -1 17.5000 84.6000 TC 25 17.5253 84.5664 1 10 272
1947305N12097 1947 89 NI BB NOT_NAMED 1947-11-05 21:00:00 TS 17.5434 84.0530 main 77 23 P________PP___ IO161947 17.5379 84.0627 -1 17.5379 84.0627 TC 25 17.5507 84.0402 1 10 274
1947305N12097 1947 89 NI BB NOT_NAMED 1947-11-06 00:00:00 TS 17.5879 83.5094 main 23 0 O________OP___ jtwc_io IO161947 17.6000 83.5000 -1 17.6000 83.5000 TC 25 17.5758 83.5189 1 10 273
1947305N12097 1947 89 NI BB NOT_NAMED 1947-11-06 03:00:00 NR 17.6000 83.0000 main 0 __________O___ IO161947 -1 TC 17.6000 83.0000 1 10 271

About IBTrACS Database

This database is a web-friendly format of International Best Track Archive for Climate Stewardship (IBTrACS), a global best track data archive curated by NOAA dating back to 1842.

Updated: 2021-10-21